Time;durP1;ratioP1;P1;durP2;ratioP2;P2;SDS_P1;SDS_P2;PMS_P1;PMS_P2;Temp;Humidity;BMP_temperature;BMP_pressure;BME280_temperature;BME280_humidity;BME280_pressure;Samples;Min_cycle;Max_cycle;Signal;HPM_P1;HPM_P2
2023/08/03 00:01:44;;;;;;;;;;;;;;;;;;5055195;28;19909;-29
2023/08/03 00:04:10;;;;;;;;;;;;;;;;;;5054903;28;19932;-26
2023/08/03 00:06:36;;;;;;;;;;;;;;;;;;5055372;28;19999;-27
2023/08/03 00:09:02;;;;;;;;;;;;;;;;;;5055143;28;19908;-27
2023/08/03 00:11:28;;;;;;;;;;;;;;;;;;5055067;28;19923;-25
2023/08/03 00:13:54;;;;;;;;;;;;;;;;;;5055009;28;19912;-26
2023/08/03 00:16:20;;;;;;;;;;;;;;;;;;5054990;28;19932;-24
2023/08/03 00:18:46;;;;;;;;;;;;;;;;;;5055265;28;19909;-28
2023/08/03 00:21:12;;;;;;;;;;;;;;;;;;5054951;28;20346;-22
2023/08/03 00:23:37;;;;;;;;;;;;;;;;;;5054818;28;19909;-25
2023/08/03 00:26:03;;;;;;;;;;;;;;;;;;5054889;28;20000;-26
2023/08/03 00:28:29;;;;;;;;;;;;;;;;;;5054841;28;19908;-29
2023/08/03 00:30:56;;;;;;;;;;;;;;;;;;5054784;28;19956;-29
2023/08/03 00:33:22;;;;;;;;;;;;;;;;;;5054937;28;19913;-23
2023/08/03 00:35:48;;;;;;;;;;;;;;;;;;5054247;28;19916;-27
2023/08/03 00:38:14;;;;;;;;;;;;;;;;;;5054718;28;19999;-28
2023/08/03 00:40:40;;;;;;;;;;;;;;;;;;5054939;28;19979;-26
2023/08/03 00:43:06;;;;;;;;;;;;;;;;;;5054494;28;19951;-28
2023/08/03 00:45:32;;;;;;;;;;;;;;;;;;5054651;28;19908;-27
2023/08/03 00:47:58;;;;;;;;;;;;;;;;;;5054792;28;19995;-23
2023/08/03 00:50:24;;;;;;;;;;;;;;;;;;5054474;28;20371;-26
2023/08/03 00:52:49;;;;;;;;;;;;;;;;;;5054437;28;20346;-30
2023/08/03 00:55:15;;;;;;;;;;;;;;;;;;5054476;28;19909;-29
2023/08/03 00:57:42;;;;;;;;;;;;;;;;;;5054520;28;19909;-28
2023/08/03 01:00:08;;;;;;;;;;;;;;;;;;5054518;28;19920;-24
2023/08/03 01:02:34;;;;;;;;;;;;;;;;;;5054387;28;19909;-24
2023/08/03 01:05:00;;;;;;;;;;;;;;;;;;5054776;28;20005;-26
2023/08/03 01:07:26;;;;;;;;;;;;;;;;;;5054412;28;19915;-28
2023/08/03 01:09:52;;;;;;;;;;;;;;;;;;5054399;28;20429;-27
2023/08/03 01:12:18;;;;;;;;;;;;;;;;;;5054241;28;20363;-26
2023/08/03 01:14:44;;;;;;;;;;;;;;;;;;5054264;28;19916;-22
2023/08/03 01:17:09;;;;;;;;;;;;;;;;;;5054304;28;19909;-28
2023/08/03 01:19:35;;;;;;;;;;;;;;;;;;5054546;28;19919;-26
2023/08/03 01:22:01;;;;;;;;;;;;;;;;;;5054173;28;19917;-29
2023/08/03 01:24:27;;;;;;;;;;;;;;;;;;5054742;28;19919;-26
2023/08/03 01:26:53;;;;;;;;;;;;;;;;;;5054485;28;19909;-24
2023/08/03 01:29:19;;;;;;;;;;;;;;;;;;5054291;28;19921;-24
2023/08/03 01:31:45;;;;;;;;;;;;;;;;;;5054084;28;19978;-26
2023/08/03 01:34:13;;;;;;;;;;;;;;;;;;5054053;28;19909;-26
2023/08/03 01:36:39;;;;;;;;;;;;;;;;;;5054187;28;19972;-26
2023/08/03 01:39:05;;;;;;;;;;;;;;;;;;5054122;28;19913;-26
2023/08/03 01:41:31;;;;;;;;;;;;;;;;;;5054014;28;19920;-23
2023/08/03 01:43:57;;;;;;;;;;;;;;;;;;5054283;28;19909;-24
2023/08/03 01:46:23;;;;;;;;;;;;;;;;;;5054003;28;19916;-27
2023/08/03 01:48:49;;;;;;;;;;;;;;;;;;5058256;28;19913;-25
2023/08/03 01:51:15;;;;;;;;;;;;;;;;;;5057688;28;19923;-25
2023/08/03 01:53:41;;;;;;;;;;;;;;;;;;5057682;28;20370;-31
2023/08/03 01:56:07;;;;;;;;;;;;;;;;;;5057962;28;20328;-28
2023/08/03 01:58:33;;;;;;;;;;;;;;;;;;5057647;28;20336;-22
2023/08/03 02:00:59;;;;;;;;;;;;;;;;;;5057801;28;19913;-26
2023/08/03 02:03:25;;;;;;;;;;;;;;;;;;5057199;28;19963;-25
2023/08/03 02:05:51;;;;;;;;;;;;;;;;;;5057441;28;20259;-25
2023/08/03 02:08:17;;;;;;;;;;;;;;;;;;5057361;28;20198;-27
2023/08/03 02:10:43;;;;;;;;;;;;;;;;;;5057525;28;19940;-29
2023/08/03 02:13:09;;;;;;;;;;;;;;;;;;5057201;28;20267;-27
2023/08/03 02:15:35;;;;;;;;;;;;;;;;;;5057268;28;19913;-24
2023/08/03 02:18:01;;;;;;;;;;;;;;;;;;5057537;28;20209;-24
2023/08/03 02:20:27;;;;;;;;;;;;;;;;;;5057469;28;19916;-22
2023/08/03 02:22:53;;;;;;;;;;;;;;;;;;5057136;28;19909;-25
2023/08/03 02:25:23;;;;;;;;;;;;;;;;;;5057334;28;20303;-24
2023/08/03 02:27:49;;;;;;;;;;;;;;;;;;5057635;28;20336;-24
2023/08/03 02:30:15;;;;;;;;;;;;;;;;;;5057037;28;19912;-24
2023/08/03 02:32:41;;;;;;;;;;;;;;;;;;5056824;28;19919;-27
2023/08/03 02:35:07;;;;;;;;;;;;;;;;;;5056950;28;19955;-26
2023/08/03 02:37:33;;;;;;;;;;;;;;;;;;5056930;28;19915;-21
2023/08/03 02:39:59;;;;;;;;;;;;;;;;;;5056756;28;20307;-26
2023/08/03 02:42:25;;;;;;;;;;;;;;;;;;5056750;28;19913;-23
2023/08/03 02:44:51;;;;;;;;;;;;;;;;;;5039148;28;19961;-28
2023/08/03 02:47:17;;;;;;;;;;;;;;;;;;5056914;28;19967;-30
2023/08/03 02:49:43;;;;;;;;;;;;;;;;;;5056678;28;19909;-27
2023/08/03 02:52:09;;;;;;;;;;;;;;;;;;5056438;28;19917;-27
2023/08/03 02:54:35;;;;;;;;;;;;;;;;;;5056600;28;19923;-26
2023/08/03 02:57:01;;;;;;;;;;;;;;;;;;5056558;28;19909;-26
2023/08/03 02:59:27;;;;;;;;;;;;;;;;;;5055752;28;19915;-29
2023/08/03 03:01:53;;;;;;;;;;;;;;;;;;5056611;28;19962;-26
2023/08/03 03:04:19;;;;;;;;;;;;;;;;;;5056193;28;19921;-24
2023/08/03 03:06:45;;;;;;;;;;;;;;;;;;5056365;28;19916;-24
2023/08/03 03:09:10;;;;;;;;;;;;;;;;;;5056277;28;19913;-25
2023/08/03 03:11:36;;;;;;;;;;;;;;;;;;5056105;28;19948;-25
2023/08/03 03:14:02;;;;;;;;;;;;;;;;;;5055876;28;19913;-27
2023/08/03 03:16:28;;;;;;;;;;;;;;;;;;5056038;28;20277;-25
2023/08/03 03:18:54;;;;;;;;;;;;;;;;;;5055998;28;20345;-27
2023/08/03 03:21:20;;;;;;;;;;;;;;;;;;5038413;28;19908;-26
2023/08/03 03:23:46;;;;;;;;;;;;;;;;;;5056343;28;19913;-26
2023/08/03 03:26:12;;;;;;;;;;;;;;;;;;5055793;28;20013;-26
2023/08/03 03:28:38;;;;;;;;;;;;;;;;;;5055881;28;19909;-26
2023/08/03 03:31:04;;;;;;;;;;;;;;;;;;5055775;28;19913;-23
2023/08/03 03:33:30;;;;;;;;;;;;;;;;;;5055946;28;19912;-25
2023/08/03 03:35:56;;;;;;;;;;;;;;;;;;5055688;28;19909;-24
2023/08/03 03:38:22;;;;;;;;;;;;;;;;;;5055920;28;19909;-24
2023/08/03 03:40:48;;;;;;;;;;;;;;;;;;5055915;28;20346;-25
2023/08/03 03:43:14;;;;;;;;;;;;;;;;;;5055443;28;19908;-26
2023/08/03 03:45:40;;;;;;;;;;;;;;;;;;5055459;28;19909;-26
2023/08/03 03:48:06;;;;;;;;;;;;;;;;;;5055605;28;19920;-27
2023/08/03 03:50:32;;;;;;;;;;;;;;;;;;5055309;28;19935;-24
2023/08/03 03:52:58;;;;;;;;;;;;;;;;;;5055306;28;20279;-26
2023/08/03 03:55:24;;;;;;;;;;;;;;;;;;5055265;28;19992;-25
2023/08/03 03:57:50;;;;;;;;;;;;;;;;;;5055471;28;19961;-31
2023/08/03 04:03:02;;;;;;;;;;;;;;;;;;5479813;22;20267;-20
2023/08/03 04:05:28;;;;;;;;;;;;;;;;;;5035391;28;19987;-20
2023/08/03 04:07:54;;;;;;;;;;;;;;;;;;5034079;28;19909;-23
2023/08/03 04:10:20;;;;;;;;;;;;;;;;;;5035007;28;19919;-20
2023/08/03 04:12:46;;;;;;;;;;;;;;;;;;5034660;28;20376;-20
2023/08/03 04:15:12;;;;;;;;;;;;;;;;;;5034805;28;19996;-20
2023/08/03 04:17:38;;;;;;;;;;;;;;;;;;5035126;28;19921;-22
2023/08/03 04:20:04;;;;;;;;;;;;;;;;;;5034836;28;20302;-20
2023/08/03 04:22:30;;;;;;;;;;;;;;;;;;5017411;28;19956;-22
2023/08/03 04:24:56;;;;;;;;;;;;;;;;;;5034434;28;19909;-22
2023/08/03 04:27:22;;;;;;;;;;;;;;;;;;5034802;28;19913;-20
2023/08/03 04:29:48;;;;;;;;;;;;;;;;;;5017059;28;19920;-20
2023/08/03 04:32:14;;;;;;;;;;;;;;;;;;5034359;28;20388;-20
2023/08/03 04:34:40;;;;;;;;;;;;;;;;;;5034832;28;20292;-20
2023/08/03 04:37:06;;;;;;;;;;;;;;;;;;5034532;28;19909;-21
2023/08/03 04:39:32;;;;;;;;;;;;;;;;;;5017041;28;19910;-22
2023/08/03 04:41:58;;;;;;;;;;;;;;;;;;5034449;28;19909;-22
2023/08/03 04:44:24;;;;;;;;;;;;;;;;;;5034517;28;19909;-20
2023/08/03 04:46:49;;;;;;;;;;;;;;;;;;5034456;28;19909;-21
2023/08/03 04:49:15;;;;;;;;;;;;;;;;;;5016896;28;19916;-20
2023/08/03 04:51:41;;;;;;;;;;;;;;;;;;5034290;28;19913;-20
2023/08/03 04:54:08;;;;;;;;;;;;;;;;;;5034227;28;19910;-22
2023/08/03 04:56:34;;;;;;;;;;;;;;;;;;5016785;28;19906;-21
2023/08/03 04:59:00;;;;;;;;;;;;;;;;;;5034217;28;19909;-22
2023/08/03 05:01:26;;;;;;;;;;;;;;;;;;5034555;28;19999;-20
2023/08/03 05:03:52;;;;;;;;;;;;;;;;;;5034040;28;19986;-21
2023/08/03 05:06:18;;;;;;;;;;;;;;;;;;5034575;28;19917;-19
2023/08/03 05:08:44;;;;;;;;;;;;;;;;;;5034361;28;19909;-20
2023/08/03 05:11:10;;;;;;;;;;;;;;;;;;5016705;28;19913;-20
2023/08/03 05:13:36;;;;;;;;;;;;;;;;;;5034246;28;19975;-21
2023/08/03 05:16:02;;;;;;;;;;;;;;;;;;5034206;28;19924;-23
2023/08/03 05:18:28;;;;;;;;;;;;;;;;;;5016778;28;19920;-21
2023/08/03 05:20:54;;;;;;;;;;;;;;;;;;5034129;28;19909;-20
2023/08/03 05:23:20;;;;;;;;;;;;;;;;;;5037225;28;20287;-19
2023/08/03 05:25:48;;;;;;;;;;;;;;;;;;5038077;28;20004;-22
2023/08/03 05:28:14;;;;;;;;;;;;;;;;;;5038005;28;19909;-20
2023/08/03 05:30:39;;;;;;;;;;;;;;;;;;5038041;28;19920;-22
2023/08/03 05:33:05;;;;;;;;;;;;;;;;;;5037854;28;19909;-22
2023/08/03 05:35:31;;;;;;;;;;;;;;;;;;5020381;28;20008;-20
2023/08/03 05:37:57;;;;;;;;;;;;;;;;;;5037851;28;20010;-22
2023/08/03 05:40:23;;;;;;;;;;;;;;;;;;5037717;28;20295;-21
2023/08/03 05:42:49;;;;;;;;;;;;;;;;;;5037596;28;19916;-20
2023/08/03 05:45:15;;;;;;;;;;;;;;;;;;5037891;28;19910;-21
2023/08/03 05:47:41;;;;;;;;;;;;;;;;;;5037617;28;19943;-20
2023/08/03 05:50:07;;;;;;;;;;;;;;;;;;5019944;28;19909;-23
2023/08/03 05:52:33;;;;;;;;;;;;;;;;;;5037318;28;19913;-24
2023/08/03 05:54:59;;;;;;;;;;;;;;;;;;5037490;28;19920;-22
2023/08/03 05:57:25;;;;;;;;;;;;;;;;;;5019985;28;20016;-21
2023/08/03 05:59:51;;;;;;;;;;;;;;;;;;5037539;28;19909;-21
2023/08/03 06:02:17;;;;;;;;;;;;;;;;;;5036453;28;19974;-20
2023/08/03 06:04:43;;;;;;;;;;;;;;;;;;5037135;28;19928;-22
2023/08/03 06:07:09;;;;;;;;;;;;;;;;;;5019629;28;20000;-22
2023/08/03 06:09:35;;;;;;;;;;;;;;;;;;5037055;28;20328;-21
2023/08/03 06:12:00;;;;;;;;;;;;;;;;;;5036826;28;20363;-21
2023/08/03 06:14:27;;;;;;;;;;;;;;;;;;5036950;28;20059;-21
2023/08/03 06:16:53;;;;;;;;;;;;;;;;;;5018965;28;19909;-20
2023/08/03 06:19:19;;;;;;;;;;;;;;;;;;5019328;28;19919;-20
2023/08/03 06:21:44;;;;;;;;;;;;;;;;;;5036501;28;20004;-21
2023/08/03 06:24:10;;;;;;;;;;;;;;;;;;5036350;28;19917;-20
2023/08/03 06:26:38;;;;;;;;;;;;;;;;;;5018948;28;19927;-21
2023/08/03 06:29:05;;;;;;;;;;;;;;;;;;5036325;28;20278;-19
2023/08/03 06:31:31;;;;;;;;;;;;;;;;;;5036035;28;19913;-21
2023/08/03 06:33:57;;;;;;;;;;;;;;;;;;5034999;28;20276;-24
2023/08/03 06:36:23;;;;;;;;;;;;;;;;;;5036114;28;19910;-20
2023/08/03 06:38:49;;;;;;;;;;;;;;;;;;5018514;28;19920;-21
2023/08/03 06:41:15;;;;;;;;;;;;;;;;;;5036508;28;19967;-21
2023/08/03 06:43:41;;;;;;;;;;;;;;;;;;5036395;28;20241;-21
2023/08/03 06:46:07;;;;;;;;;;;;;;;;;;5036700;28;19967;-22
2023/08/03 06:48:33;;;;;;;;;;;;;;;;;;5036719;28;19936;-22
2023/08/03 06:50:59;;;;;;;;;;;;;;;;;;5036609;28;20371;-21
2023/08/03 06:53:25;;;;;;;;;;;;;;;;;;5036520;28;19909;-22
2023/08/03 06:55:51;;;;;;;;;;;;;;;;;;5036742;28;19909;-20
2023/08/03 06:58:20;;;;;;;;;;;;;;;;;;5036262;28;19920;-21
2023/08/03 07:00:46;;;;;;;;;;;;;;;;;;5018491;28;19944;-23
2023/08/03 07:03:12;;;;;;;;;;;;;;;;;;5035872;28;19993;-21
2023/08/03 07:05:37;;;;;;;;;;;;;;;;;;5018554;28;20004;-20
2023/08/03 07:08:04;;;;;;;;;;;;;;;;;;5036085;28;20295;-20
2023/08/03 07:10:30;;;;;;;;;;;;;;;;;;5035994;28;19956;-21
2023/08/03 07:12:56;;;;;;;;;;;;;;;;;;5036080;28;19931;-22
2023/08/03 07:15:22;;;;;;;;;;;;;;;;;;5018663;28;19913;-23
2023/08/03 07:17:48;;;;;;;;;;;;;;;;;;5035700;28;19932;-21
2023/08/03 07:20:14;;;;;;;;;;;;;;;;;;5035751;28;19909;-22
2023/08/03 07:22:40;;;;;;;;;;;;;;;;;;5035630;28;19909;-20
2023/08/03 07:25:05;;;;;;;;;;;;;;;;;;5035660;28;20209;-21
2023/08/03 07:27:31;;;;;;;;;;;;;;;;;;5035801;28;19909;-20
2023/08/03 07:29:57;;;;;;;;;;;;;;;;;;5018314;28;19967;-21
2023/08/03 07:32:23;;;;;;;;;;;;;;;;;;5035471;28;20314;-22
2023/08/03 07:34:49;;;;;;;;;;;;;;;;;;5018269;28;20263;-22
2023/08/03 07:37:15;;;;;;;;;;;;;;;;;;5035790;28;20261;-21
2023/08/03 07:39:41;;;;;;;;;;;;;;;;;;5017691;28;19949;-20
2023/08/03 07:42:07;;;;;;;;;;;;;;;;;;5035132;28;19917;-20
2023/08/03 07:44:33;;;;;;;;;;;;;;;;;;5017257;28;20334;-20
2023/08/03 07:46:59;;;;;;;;;;;;;;;;;;5017690;28;19909;-20
2023/08/03 07:49:25;;;;;;;;;;;;;;;;;;5034837;28;19959;-19
2023/08/03 07:51:51;;;;;;;;;;;;;;;;;;5034861;28;19913;-20
2023/08/03 07:54:17;;;;;;;;;;;;;;;;;;5035227;28;20347;-20
2023/08/03 07:56:43;;;;;;;;;;;;;;;;;;5035134;28;20236;-21
2023/08/03 07:59:10;;;;;;;;;;;;;;;;;;5017495;28;19909;-20
2023/08/03 08:01:36;;;;;;;;;;;;;;;;;;5035629;28;19916;-20
2023/08/03 08:04:02;;;;;;;;;;;;;;;;;;5017203;28;20275;-23
2023/08/03 08:06:28;;;;;;;;;;;;;;;;;;5034996;28;19905;-21
2023/08/03 08:08:54;;;;;;;;;;;;;;;;;;5034987;28;19909;-23
2023/08/03 08:11:20;;;;;;;;;;;;;;;;;;5034791;28;19959;-20
2023/08/03 08:13:46;;;;;;;;;;;;;;;;;;5034976;28;19974;-20
2023/08/03 08:16:12;;;;;;;;;;;;;;;;;;5034597;28;19909;-22
2023/08/03 08:18:38;;;;;;;;;;;;;;;;;;5034648;28;19949;-19
2023/08/03 08:21:04;;;;;;;;;;;;;;;;;;5034713;28;19920;-19
2023/08/03 08:23:30;;;;;;;;;;;;;;;;;;5034587;28;19984;-22
2023/08/03 08:25:56;;;;;;;;;;;;;;;;;;5034714;28;19945;-21
2023/08/03 08:28:22;;;;;;;;;;;;;;;;;;5034668;28;20263;-21
2023/08/03 08:30:48;;;;;;;;;;;;;;;;;;5034518;28;19965;-21
2023/08/03 08:33:14;;;;;;;;;;;;;;;;;;5017051;28;19921;-21
2023/08/03 08:35:40;;;;;;;;;;;;;;;;;;5035003;28;20367;-22
2023/08/03 08:38:06;;;;;;;;;;;;;;;;;;5034445;28;19909;-22
2023/08/03 08:40:32;;;;;;;;;;;;;;;;;;5034163;28;20384;-21
2023/08/03 08:42:58;;;;;;;;;;;;;;;;;;5034292;28;20336;-22
2023/08/03 08:45:24;;;;;;;;;;;;;;;;;;5033644;28;20234;-29
2023/08/03 08:47:50;;;;;;;;;;;;;;;;;;5033572;28;19966;-21
2023/08/03 08:50:16;;;;;;;;;;;;;;;;;;5016203;28;20013;-22
2023/08/03 08:52:42;;;;;;;;;;;;;;;;;;5016042;28;19971;-21
2023/08/03 08:55:08;;;;;;;;;;;;;;;;;;5033516;28;19919;-20
2023/08/03 08:57:34;;;;;;;;;;;;;;;;;;5033199;28;20025;-21
2023/08/03 09:00:02;;;;;;;;;;;;;;;;;;5033589;28;19909;-21
2023/08/03 09:02:28;;;;;;;;;;;;;;;;;;5033611;28;20004;-21
2023/08/03 09:04:54;;;;;;;;;;;;;;;;;;5033370;28;20397;-20
2023/08/03 09:07:20;;;;;;;;;;;;;;;;;;5033467;28;19909;-21
2023/08/03 09:09:46;;;;;;;;;;;;;;;;;;5033390;28;19913;-20
2023/08/03 09:12:12;;;;;;;;;;;;;;;;;;5015733;28;19913;-21
2023/08/03 09:14:38;;;;;;;;;;;;;;;;;;5033340;28;19920;-22
2023/08/03 09:17:04;;;;;;;;;;;;;;;;;;5015861;28;20007;-22
2023/08/03 09:19:30;;;;;;;;;;;;;;;;;;5033626;28;19909;-22
2023/08/03 09:21:55;;;;;;;;;;;;;;;;;;5033270;28;19960;-21
2023/08/03 09:24:22;;;;;;;;;;;;;;;;;;5033464;28;20387;-20
2023/08/03 09:26:48;;;;;;;;;;;;;;;;;;5033648;28;20205;-21
2023/08/03 09:29:14;;;;;;;;;;;;;;;;;;5033632;28;19909;-21
2023/08/03 09:31:40;;;;;;;;;;;;;;;;;;5033792;28;19962;-21
2023/08/03 09:34:06;;;;;;;;;;;;;;;;;;5016751;28;19917;-23
2023/08/03 09:36:34;;;;;;;;;;;;;;;;;;5016349;28;20275;-20
2023/08/03 09:39:03;;;;;;;;;;;;;;;;;;5034010;28;20454;-21
2023/08/03 09:41:29;;;;;;;;;;;;;;;;;;5034225;28;19920;-21
2023/08/03 09:43:54;;;;;;;;;;;;;;;;;;5033823;28;20301;-22
2023/08/03 09:46:20;;;;;;;;;;;;;;;;;;5033722;28;20229;-20
2023/08/03 09:48:46;;;;;;;;;;;;;;;;;;5015975;28;20260;-22
2023/08/03 09:51:12;;;;;;;;;;;;;;;;;;5033288;28;20258;-20
2023/08/03 09:53:38;;;;;;;;;;;;;;;;;;5033148;28;20236;-21
2023/08/03 09:56:06;;;;;;;;;;;;;;;;;;5033046;28;19909;-23
2023/08/03 09:58:32;;;;;;;;;;;;;;;;;;5033280;28;19941;-20
2023/08/03 10:00:59;;;;;;;;;;;;;;;;;;5033711;28;19909;-21
2023/08/03 10:03:25;;;;;;;;;;;;;;;;;;5033386;28;20113;-21
2023/08/03 10:05:51;;;;;;;;;;;;;;;;;;5033707;28;19955;-22
2023/08/03 10:08:17;;;;;;;;;;;;;;;;;;5035019;28;19909;-24
2023/08/03 10:10:43;;;;;;;;;;;;;;;;;;5037196;28;19913;-21
2023/08/03 10:13:09;;;;;;;;;;;;;;;;;;5037032;28;19919;-20
2023/08/03 10:15:35;;;;;;;;;;;;;;;;;;5037070;28;20000;-21
2023/08/03 10:18:01;;;;;;;;;;;;;;;;;;5019445;28;19919;-20
2023/08/03 10:20:27;;;;;;;;;;;;;;;;;;5036838;28;20332;-20
2023/08/03 10:22:53;;;;;;;;;;;;;;;;;;5037014;28;19923;-22
2023/08/03 10:25:19;;;;;;;;;;;;;;;;;;5036799;28;19916;-24
2023/08/03 10:27:45;;;;;;;;;;;;;;;;;;5037003;28;19909;-20
2023/08/03 10:30:11;;;;;;;;;;;;;;;;;;5036852;28;20240;-20
2023/08/03 10:32:37;;;;;;;;;;;;;;;;;;5036468;28;19924;-21
2023/08/03 10:35:03;;;;;;;;;;;;;;;;;;5036514;28;19913;-29
2023/08/03 10:37:29;;;;;;;;;;;;;;;;;;5036669;28;20342;-21
2023/08/03 10:39:56;;;;;;;;;;;;;;;;;;5036518;28;19955;-21
2023/08/03 10:42:23;;;;;;;;;;;;;;;;;;5036687;28;19913;-21
2023/08/03 10:44:49;;;;;;;;;;;;;;;;;;5036742;28;19935;-22
2023/08/03 10:47:15;;;;;;;;;;;;;;;;;;5036801;28;19953;-23
2023/08/03 10:49:41;;;;;;;;;;;;;;;;;;5036573;28;20213;-22
2023/08/03 10:52:06;;;;;;;;;;;;;;;;;;5036265;28;19999;-22
2023/08/03 10:54:32;;;;;;;;;;;;;;;;;;5035798;28;19913;-21
2023/08/03 10:56:58;;;;;;;;;;;;;;;;;;5035913;28;19976;-21
2023/08/03 10:59:24;;;;;;;;;;;;;;;;;;5018766;28;19960;-20
2023/08/03 11:01:50;;;;;;;;;;;;;;;;;;5035327;28;19917;-22
2023/08/03 11:04:16;;;;;;;;;;;;;;;;;;5035031;28;20256;-21
2023/08/03 11:06:42;;;;;;;;;;;;;;;;;;5017725;28;20371;-21
2023/08/03 11:09:09;;;;;;;;;;;;;;;;;;5017801;28;19974;-22
2023/08/03 11:11:35;;;;;;;;;;;;;;;;;;5034968;28;19913;-21
2023/08/03 11:14:01;;;;;;;;;;;;;;;;;;5034948;28;19920;-21
2023/08/03 11:16:27;;;;;;;;;;;;;;;;;;5034973;28;19909;-21
2023/08/03 11:18:53;;;;;;;;;;;;;;;;;;5035275;28;19913;-21
2023/08/03 11:21:19;;;;;;;;;;;;;;;;;;5034206;28;19920;-23
2023/08/03 11:23:45;;;;;;;;;;;;;;;;;;5035496;28;19909;-21
2023/08/03 11:26:11;;;;;;;;;;;;;;;;;;5035978;28;20003;-21
2023/08/03 11:28:37;;;;;;;;;;;;;;;;;;5036132;28;20370;-21
2023/08/03 11:31:03;;;;;;;;;;;;;;;;;;5035660;28;19913;-22
2023/08/03 11:33:34;;;;;;;;;;;;;;;;;;5035747;28;19924;-19
2023/08/03 11:36:00;;;;;;;;;;;;;;;;;;5035470;28;20311;-20
2023/08/03 11:38:28;;;;;;;;;;;;;;;;;;5017412;28;20143;-21
2023/08/03 11:40:54;;;;;;;;;;;;;;;;;;5035602;28;19910;-21
2023/08/03 11:43:20;;;;;;;;;;;;;;;;;;5035579;28;20390;-20
2023/08/03 11:45:46;;;;;;;;;;;;;;;;;;5035458;28;20208;-22
2023/08/03 11:48:12;;;;;;;;;;;;;;;;;;5036005;28;20189;-22
2023/08/03 11:50:38;;;;;;;;;;;;;;;;;;5035731;28;19975;-21
2023/08/03 11:53:04;;;;;;;;;;;;;;;;;;5017695;28;20350;-21
2023/08/03 11:55:30;;;;;;;;;;;;;;;;;;5017505;28;19909;-21
2023/08/03 11:58:10;;;;;;;;;;;;;;;;;;5017715;28;20012;-21
2023/08/03 12:00:36;;;;;;;;;;;;;;;;;;5035501;28;19921;-22
2023/08/03 12:03:02;;;;;;;;;;;;;;;;;;5035079;28;19921;-21
2023/08/03 12:05:28;;;;;;;;;;;;;;;;;;5035167;28;19920;-20
2023/08/03 12:07:54;;;;;;;;;;;;;;;;;;5034958;28;20204;-21
2023/08/03 12:10:20;;;;;;;;;;;;;;;;;;5035054;28;19909;-21
2023/08/03 12:12:46;;;;;;;;;;;;;;;;;;5034728;28;19917;-29
2023/08/03 12:15:12;;;;;;;;;;;;;;;;;;5017400;28;20324;-22
2023/08/03 12:17:38;;;;;;;;;;;;;;;;;;5034543;28;19929;-22
2023/08/03 12:20:04;;;;;;;;;;;;;;;;;;5017156;28;19920;-22
2023/08/03 12:22:30;;;;;;;;;;;;;;;;;;5034639;28;20007;-27
2023/08/03 12:24:56;;;;;;;;;;;;;;;;;;5034967;28;19959;-20
2023/08/03 12:27:22;;;;;;;;;;;;;;;;;;5034748;28;20024;-21
2023/08/03 12:29:49;;;;;;;;;;;;;;;;;;5034933;28;20307;-20
2023/08/03 12:32:15;;;;;;;;;;;;;;;;;;5016018;28;19924;-21
2023/08/03 12:34:40;;;;;;;;;;;;;;;;;;5016929;28;19909;-20
2023/08/03 12:37:06;;;;;;;;;;;;;;;;;;5016858;28;20023;-22
2023/08/03 12:39:32;;;;;;;;;;;;;;;;;;5034483;28;20394;-20
2023/08/03 12:41:58;;;;;;;;;;;;;;;;;;5016951;28;19910;-20
2023/08/03 12:44:26;;;;;;;;;;;;;;;;;;5034460;28;19916;-21
2023/08/03 12:46:52;;;;;;;;;;;;;;;;;;5016720;28;19909;-21
2023/08/03 12:49:19;;;;;;;;;;;;;;;;;;5034341;28;19909;-21
2023/08/03 12:51:45;;;;;;;;;;;;;;;;;;5016659;28;19925;-20
2023/08/03 12:54:11;;;;;;;;;;;;;;;;;;5034240;28;19917;-20
2023/08/03 12:56:38;;;;;;;;;;;;;;;;;;5034157;28;19928;-21
2023/08/03 12:59:04;;;;;;;;;;;;;;;;;;5034209;28;19971;-21
2023/08/03 13:01:30;;;;;;;;;;;;;;;;;;5034340;28;19906;-21
2023/08/03 13:03:56;;;;;;;;;;;;;;;;;;5016554;28;19983;-25
2023/08/03 13:06:22;;;;;;;;;;;;;;;;;;5034222;28;19905;-21
2023/08/03 13:08:48;;;;;;;;;;;;;;;;;;5034547;28;19917;-21
2023/08/03 13:11:14;;;;;;;;;;;;;;;;;;5034386;28;20335;-20
2023/08/03 13:13:40;;;;;;;;;;;;;;;;;;5016740;28;19967;-20
2023/08/03 13:16:06;;;;;;;;;;;;;;;;;;5034489;28;20000;-22
2023/08/03 13:18:32;;;;;;;;;;;;;;;;;;5034283;28;19909;-21
2023/08/03 13:20:58;;;;;;;;;;;;;;;;;;5034133;28;19920;-22
2023/08/03 13:23:24;;;;;;;;;;;;;;;;;;5034224;28;19909;-22
2023/08/03 13:25:50;;;;;;;;;;;;;;;;;;5016660;28;20335;-20
2023/08/03 13:28:16;;;;;;;;;;;;;;;;;;5017697;28;19997;-21
2023/08/03 13:30:42;;;;;;;;;;;;;;;;;;5034447;28;19917;-21
2023/08/03 13:33:08;;;;;;;;;;;;;;;;;;5034184;28;20047;-23
2023/08/03 13:35:34;;;;;;;;;;;;;;;;;;5033911;28;19909;-22
2023/08/03 13:38:00;;;;;;;;;;;;;;;;;;5033969;28;20395;-22
2023/08/03 13:40:26;;;;;;;;;;;;;;;;;;5034043;28;19910;-21
2023/08/03 13:42:52;;;;;;;;;;;;;;;;;;5017077;28;19988;-21
2023/08/03 13:45:18;;;;;;;;;;;;;;;;;;5037680;28;19916;-20
2023/08/03 13:47:44;;;;;;;;;;;;;;;;;;5037564;28;19929;-22
2023/08/03 13:50:10;;;;;;;;;;;;;;;;;;5037910;28;20274;-22
2023/08/03 13:52:36;;;;;;;;;;;;;;;;;;5037461;28;20004;-22
2023/08/03 13:55:02;;;;;;;;;;;;;;;;;;5037728;28;20304;-20
2023/08/03 13:57:28;;;;;;;;;;;;;;;;;;5020087;28;19909;-20
2023/08/03 13:59:54;;;;;;;;;;;;;;;;;;5037367;28;19915;-21
2023/08/03 14:02:20;;;;;;;;;;;;;;;;;;5020405;28;19909;-21
2023/08/03 14:04:46;;;;;;;;;;;;;;;;;;5037196;28;20253;-22
2023/08/03 14:07:12;;;;;;;;;;;;;;;;;;5037209;28;19909;-22
2023/08/03 14:09:38;;;;;;;;;;;;;;;;;;5037551;28;20237;-20
2023/08/03 14:12:04;;;;;;;;;;;;;;;;;;5019743;28;19913;-22
2023/08/03 14:14:30;;;;;;;;;;;;;;;;;;5019755;28;19974;-20
2023/08/03 14:16:56;;;;;;;;;;;;;;;;;;5037325;28;19909;-21
2023/08/03 14:19:22;;;;;;;;;;;;;;;;;;5037011;28;19909;-20
2023/08/03 14:21:48;;;;;;;;;;;;;;;;;;5019375;28;19963;-24
2023/08/03 14:24:14;;;;;;;;;;;;;;;;;;5036957;28;19909;-21
2023/08/03 14:26:40;;;;;;;;;;;;;;;;;;5036940;28;19916;-20
2023/08/03 14:29:06;;;;;;;;;;;;;;;;;;5036833;28;19909;-21
2023/08/03 14:31:32;;;;;;;;;;;;;;;;;;5036796;28;19939;-19
2023/08/03 14:33:58;;;;;;;;;;;;;;;;;;5036536;28;19909;-20
2023/08/03 14:36:24;;;;;;;;;;;;;;;;;;5036649;28;19919;-20
2023/08/03 14:38:50;;;;;;;;;;;;;;;;;;5036796;28;19936;-21
2023/08/03 14:41:17;;;;;;;;;;;;;;;;;;5036842;28;19976;-22
2023/08/03 14:43:43;;;;;;;;;;;;;;;;;;5036595;28;19913;-22
2023/08/03 14:46:09;;;;;;;;;;;;;;;;;;5036444;28;19909;-20
2023/08/03 14:48:35;;;;;;;;;;;;;;;;;;5018975;28;19994;-21
2023/08/03 14:51:01;;;;;;;;;;;;;;;;;;5018856;28;19921;-21
2023/08/03 14:53:27;;;;;;;;;;;;;;;;;;5036085;28;19917;-21
2023/08/03 14:55:53;;;;;;;;;;;;;;;;;;5035569;28;20305;-20
2023/08/03 14:58:19;;;;;;;;;;;;;;;;;;5018882;28;20218;-21
2023/08/03 15:00:45;;;;;;;;;;;;;;;;;;5036223;28;19909;-20
2023/08/03 15:03:11;;;;;;;;;;;;;;;;;;5035959;28;19956;-20
2023/08/03 15:05:37;;;;;;;;;;;;;;;;;;5018680;28;19913;-22
2023/08/03 15:08:03;;;;;;;;;;;;;;;;;;5036455;28;19950;-20
2023/08/03 15:10:29;;;;;;;;;;;;;;;;;;5035886;28;19917;-20
2023/08/03 15:12:55;;;;;;;;;;;;;;;;;;5035645;28;20276;-21
2023/08/03 15:15:20;;;;;;;;;;;;;;;;;;5035591;28;19917;-21
2023/08/03 15:17:46;;;;;;;;;;;;;;;;;;5017983;28;19916;-22
2023/08/03 15:20:12;;;;;;;;;;;;;;;;;;5018126;28;19974;-20
2023/08/03 15:22:38;;;;;;;;;;;;;;;;;;5035579;28;19963;-21
2023/08/03 15:25:04;;;;;;;;;;;;;;;;;;5035503;28;19916;-20
2023/08/03 15:27:30;;;;;;;;;;;;;;;;;;5035808;28;20002;-21
2023/08/03 15:29:56;;;;;;;;;;;;;;;;;;5035467;28;19952;-22
2023/08/03 15:32:22;;;;;;;;;;;;;;;;;;5035220;28;19913;-22
2023/08/03 15:34:48;;;;;;;;;;;;;;;;;;5035490;28;19910;-23
2023/08/03 15:37:14;;;;;;;;;;;;;;;;;;5035691;28;19967;-20
2023/08/03 15:39:40;;;;;;;;;;;;;;;;;;5035667;28;19955;-20
2023/08/03 15:42:06;;;;;;;;;;;;;;;;;;5018033;28;19920;-20
2023/08/03 15:44:32;;;;;;;;;;;;;;;;;;5018064;28;20316;-20
2023/08/03 15:46:58;;;;;;;;;;;;;;;;;;5017831;28;20362;-22
2023/08/03 15:49:24;;;;;;;;;;;;;;;;;;5035314;28;19909;-22
2023/08/03 15:51:50;;;;;;;;;;;;;;;;;;5035115;28;19917;-21
2023/08/03 15:54:16;;;;;;;;;;;;;;;;;;5035158;28;19909;-21
2023/08/03 15:56:42;;;;;;;;;;;;;;;;;;5035417;28;19905;-20
2023/08/03 15:59:08;;;;;;;;;;;;;;;;;;5035421;28;20004;-21
2023/08/03 16:01:34;;;;;;;;;;;;;;;;;;5035667;28;19905;-22
2023/08/03 16:04:00;;;;;;;;;;;;;;;;;;5035167;28;19925;-21
2023/08/03 16:06:26;;;;;;;;;;;;;;;;;;5017724;28;19916;-22
2023/08/03 16:08:52;;;;;;;;;;;;;;;;;;5035292;28;19920;-21
2023/08/03 16:11:18;;;;;;;;;;;;;;;;;;5034904;28;19917;-20
2023/08/03 16:13:44;;;;;;;;;;;;;;;;;;5034798;28;19998;-20
2023/08/03 16:16:10;;;;;;;;;;;;;;;;;;5034914;28;20030;-20
2023/08/03 16:18:36;;;;;;;;;;;;;;;;;;5034859;28;19920;-19
2023/08/03 16:21:02;;;;;;;;;;;;;;;;;;5035543;28;19956;-22
2023/08/03 16:23:28;;;;;;;;;;;;;;;;;;5034999;28;19913;-20
2023/08/03 16:25:54;;;;;;;;;;;;;;;;;;5035017;28;19909;-22
2023/08/03 16:28:20;;;;;;;;;;;;;;;;;;5034623;28;19945;-21
2023/08/03 16:30:46;;;;;;;;;;;;;;;;;;5035005;28;20366;-20
2023/08/03 16:33:13;;;;;;;;;;;;;;;;;;5034433;28;19999;-23
2023/08/03 16:35:39;;;;;;;;;;;;;;;;;;5034653;28;20235;-20
2023/08/03 16:38:05;;;;;;;;;;;;;;;;;;5034705;28;20000;-22
2023/08/03 16:40:31;;;;;;;;;;;;;;;;;;5034687;28;20360;-23